Time;durP1;ratioP1;P1;durP2;ratioP2;P2;SDS_P1;SDS_P2;PMS_P1;PMS_P2;Temp;Humidity;BMP_temperature;BMP_pressure;BME280_temperature;BME280_humidity;BME280_pressure;Samples;Min_cycle;Max_cycle;Signal;HPM_P1;HPM_P2
2024/04/02 00:01:24;;;;;;;1.17;0.70;;;9.70;99.90;;;;;;4949394;28;20268;-89
2024/04/02 00:03:49;;;;;;;0.80;0.70;;;9.60;99.90;;;;;;4955725;28;20427;-90
2024/04/02 00:06:15;;;;;;;0.97;0.70;;;9.70;99.90;;;;;;4949195;28;20214;-90
2024/04/02 00:08:41;;;;;;;0.93;0.83;;;9.60;99.90;;;;;;4947229;28;20215;-90
2024/04/02 00:11:06;;;;;;;1.90;0.90;;;9.70;99.90;;;;;;4946280;28;20218;-90
2024/04/02 00:13:34;;;;;;;2.73;0.80;;;9.70;99.90;;;;;;4947174;28;20254;-90
2024/04/02 00:15:59;;;;;;;0.93;0.60;;;9.70;99.90;;;;;;4952745;28;20574;-90
2024/04/02 00:18:25;;;;;;;1.07;0.83;;;9.70;99.90;;;;;;4947369;28;20202;-89
2024/04/02 00:20:51;;;;;;;0.80;0.80;;;9.50;99.90;;;;;;4950195;28;20194;-90
2024/04/02 00:23:17;;;;;;;1.25;0.77;;;9.80;99.90;;;;;;4947272;28;20616;-90
2024/04/02 00:25:43;;;;;;;1.30;0.80;;;9.50;99.90;;;;;;4949025;28;20222;-90
2024/04/02 00:28:12;;;;;;;0.83;0.60;;;9.80;99.90;;;;;;4946914;28;20215;-90
2024/04/02 00:30:39;;;;;;;0.93;0.85;;;9.40;99.90;;;;;;4947960;28;20963;-90
2024/04/02 00:33:05;;;;;;;1.95;0.70;;;9.50;99.90;;;;;;4948692;28;20191;-90
2024/04/02 00:35:30;;;;;;;1.50;1.40;;;9.50;99.90;;;;;;4953950;28;20193;-90
2024/04/02 00:37:56;;;;;;;0.80;0.70;;;9.50;99.90;;;;;;4945908;28;20223;-90
2024/04/02 00:40:22;;;;;;;0.75;0.73;;;9.40;99.90;;;;;;4959608;28;20170;-90
2024/04/02 00:42:48;;;;;;;0.63;0.63;;;9.60;99.90;;;;;;4966044;28;20213;-90
2024/04/02 00:45:14;;;;;;;1.15;0.80;;;9.40;99.90;;;;;;4966741;28;20196;-90
2024/04/02 00:47:41;;;;;;;0.82;0.75;;;9.80;99.90;;;;;;4969507;28;20221;-90
2024/04/02 00:50:07;;;;;;;0.85;0.63;;;9.20;99.90;;;;;;4951750;28;20567;-90
2024/04/02 00:52:33;;;;;;;1.17;1.08;;;9.40;99.90;;;;;;4972586;28;20189;-90
2024/04/02 00:54:59;;;;;;;0.70;0.70;;;9.70;99.90;;;;;;4948053;28;20195;-90
2024/04/02 00:57:25;;;;;;;0.98;0.90;;;9.30;99.90;;;;;;4965661;28;20563;-90
2024/04/02 00:59:51;;;;;;;1.40;0.80;;;9.80;99.90;;;;;;4950604;28;20200;-90
2024/04/02 01:02:18;;;;;;;1.50;1.10;;;9.30;99.90;;;;;;4958648;28;20667;-90
2024/04/02 01:04:45;;;;;;;1.27;0.98;;;9.60;99.90;;;;;;4954202;28;20181;-90
2024/04/02 01:07:11;;;;;;;0.93;0.77;;;9.20;99.90;;;;;;4946442;28;20215;-90
2024/04/02 01:09:38;;;;;;;1.63;0.70;;;9.40;99.90;;;;;;4947063;28;20211;-90
2024/04/02 01:12:07;;;;;;;0.88;0.80;;;9.90;99.90;;;;;;4944834;28;20187;-90
2024/04/02 01:14:36;;;;;;;1.35;0.90;;;9.30;99.90;;;;;;4955593;28;20188;-90
2024/04/02 01:17:02;;;;;;;0.95;0.75;;;9.30;99.90;;;;;;4940565;28;20214;-90
2024/04/02 01:19:27;;;;;;;1.03;0.80;;;9.60;99.90;;;;;;4947240;28;20248;-90
2024/04/02 01:21:53;;;;;;;1.87;0.70;;;9.20;99.90;;;;;;4952970;28;20197;-90
2024/04/02 01:24:18;;;;;;;0.90;0.80;;;9.50;99.90;;;;;;4954993;28;20190;-90
2024/04/02 01:26:44;;;;;;;1.00;0.80;;;9.10;99.90;;;;;;4942129;28;20249;-88
2024/04/02 01:29:09;;;;;;;1.93;1.10;;;9.20;99.90;;;;;;4952080;28;20263;-89
2024/04/02 01:31:35;;;;;;;0.83;0.77;;;9.70;99.90;;;;;;4955115;28;20259;-88
2024/04/02 01:34:01;;;;;;;1.07;0.70;;;9.30;99.90;;;;;;4948658;28;20188;-89
2024/04/02 01:36:26;;;;;;;0.83;0.70;;;9.80;99.90;;;;;;4948083;28;20745;-88
2024/04/02 01:38:52;;;;;;;0.63;0.60;;;9.30;99.90;;;;;;4954210;28;20211;-88
2024/04/02 01:41:17;;;;;;;1.20;0.90;;;9.70;99.90;;;;;;4950891;28;20188;-88
2024/04/02 01:43:43;;;;;;;0.80;0.80;;;9.80;99.90;;;;;;4942785;28;20703;-89
2024/04/02 01:46:08;;;;;;;1.57;0.80;;;9.70;99.90;;;;;;4951789;28;20217;-89
2024/04/02 01:48:34;;;;;;;0.70;0.60;;;9.40;99.90;;;;;;4953387;28;20202;-89
2024/04/02 01:50:59;;;;;;;0.70;0.70;;;9.20;99.90;;;;;;4966126;28;20222;-90
2024/04/02 01:53:25;;;;;;;0.90;0.80;;;9.40;99.90;;;;;;4955735;28;20193;-90
2024/04/02 01:55:51;;;;;;;1.33;0.80;;;9.50;99.90;;;;;;4959485;28;20200;-90
2024/04/02 01:58:17;;;;;;;0.90;0.70;;;9.20;99.90;;;;;;4959493;28;20216;-90
2024/04/02 02:00:43;;;;;;;1.00;0.80;;;9.30;99.90;;;;;;4973068;28;20487;-90
2024/04/02 02:03:08;;;;;;;0.90;0.80;;;9.30;99.90;;;;;;4965262;28;20283;-89
2024/04/02 02:05:34;;;;;;;1.60;1.23;;;9.10;99.90;;;;;;4957563;28;20477;-89
2024/04/02 02:07:59;;;;;;;0.67;0.60;;;9.20;99.90;;;;;;4972362;28;20221;-90
2024/04/02 02:10:25;;;;;;;1.07;0.80;;;9.70;99.90;;;;;;4973084;28;20188;-89
2024/04/02 02:12:50;;;;;;;1.30;0.80;;;9.50;99.90;;;;;;4973138;28;20189;-90
2024/04/02 02:15:16;;;;;;;0.77;0.60;;;9.20;99.90;;;;;;4970921;28;20196;-89
2024/04/02 02:17:47;;;;;;;0.80;0.80;;;9.20;99.90;;;;;;4969129;28;20196;-90
2024/04/02 02:20:13;;;;;;;0.80;0.70;;;9.40;99.90;;;;;;4972681;28;20258;-89
2024/04/02 02:22:39;;;;;;;0.80;0.80;;;9.20;99.90;;;;;;4964443;28;20181;-89
2024/04/02 02:25:04;;;;;;;0.90;0.80;;;9.50;99.90;;;;;;4966358;28;20185;-90
2024/04/02 02:27:30;;;;;;;1.00;0.90;;;9.50;99.90;;;;;;4972944;28;20202;-89
2024/04/02 02:29:55;;;;;;;1.03;0.70;;;9.30;99.90;;;;;;4971430;28;20206;-90
2024/04/02 02:32:21;;;;;;;1.37;0.70;;;9.50;99.90;;;;;;4980932;28;20185;-90
2024/04/02 02:34:46;;;;;;;0.93;0.83;;;9.10;99.90;;;;;;4968749;28;20178;-89
2024/04/02 02:37:12;;;;;;;0.97;0.80;;;9.30;99.90;;;;;;4974353;28;20195;-89
2024/04/02 02:39:37;;;;;;;0.80;0.80;;;9.50;99.90;;;;;;4976703;28;20170;-89
2024/04/02 02:42:04;;;;;;;0.70;0.60;;;9.30;99.90;;;;;;4970909;28;20197;-90
2024/04/02 02:44:29;;;;;;;0.90;0.80;;;9.40;99.90;;;;;;4968660;28;20205;-89
2024/04/02 02:46:55;;;;;;;1.03;0.70;;;9.60;99.90;;;;;;4991474;28;20209;-89
2024/04/02 02:49:20;;;;;;;0.80;0.80;;;9.60;99.90;;;;;;4972200;28;20227;-90
2024/04/02 02:51:46;;;;;;;0.80;0.70;;;9.60;99.90;;;;;;4971809;28;20176;-89
2024/04/02 02:54:11;;;;;;;2.00;0.90;;;9.80;99.90;;;;;;4971476;28;20203;-90
2024/04/02 02:56:38;;;;;;;0.80;0.70;;;10.00;99.90;;;;;;4962262;28;20218;-90
2024/04/02 02:59:04;;;;;;;0.70;0.70;;;9.40;99.90;;;;;;4941746;28;20193;-90
2024/04/02 03:01:29;;;;;;;1.57;0.80;;;9.40;99.90;;;;;;4947968;28;20196;-90
2024/04/02 03:03:55;;;;;;;0.90;0.70;;;9.60;99.90;;;;;;4944682;28;20192;-89
2024/04/02 03:06:21;;;;;;;1.83;0.60;;;9.50;99.90;;;;;;4948696;28;20224;-90
2024/04/02 03:08:47;;;;;;;0.90;0.80;;;9.80;99.90;;;;;;4948817;28;20692;-89
2024/04/02 03:11:12;;;;;;;2.60;0.70;;;9.60;99.90;;;;;;4951183;28;20939;-89
2024/04/02 03:13:38;;;;;;;0.90;0.80;;;9.30;99.90;;;;;;4950327;28;20237;-90
2024/04/02 03:16:04;;;;;;;1.97;0.70;;;9.40;99.90;;;;;;4944733;28;20857;-90
2024/04/02 03:18:30;;;;;;;0.67;0.60;;;9.20;99.90;;;;;;4945750;28;20193;-90
2024/04/02 03:20:56;;;;;;;0.70;0.70;;;9.40;99.90;;;;;;4964065;28;20440;-89
2024/04/02 03:23:22;;;;;;;2.08;0.80;;;9.50;99.90;;;;;;4942982;28;20684;-89
2024/04/02 03:25:52;;;;;;;1.47;0.70;;;9.30;99.90;;;;;;4948658;28;20296;-89
2024/04/02 03:28:18;;;;;;;2.05;1.00;;;9.30;99.90;;;;;;4945999;28;20628;-89
2024/04/02 03:30:44;;;;;;;1.50;1.30;;;9.30;99.90;;;;;;4946053;28;20260;-90
2024/04/02 03:33:09;;;;;;;0.97;0.70;;;9.60;99.90;;;;;;4946401;28;20191;-90
2024/04/02 03:35:35;;;;;;;1.20;0.80;;;9.00;99.90;;;;;;4949580;28;20524;-90
2024/04/02 03:38:01;;;;;;;0.70;0.50;;;8.90;99.90;;;;;;4965834;28;20599;-89
2024/04/02 03:40:26;;;;;;;1.47;0.70;;;9.30;99.90;;;;;;4954904;28;20412;-90
2024/04/02 03:42:52;;;;;;;1.23;1.00;;;9.00;99.90;;;;;;4954050;28;20217;-89
2024/04/02 03:45:20;;;;;;;0.90;0.70;;;9.60;99.90;;;;;;4955279;28;20181;-89
2024/04/02 03:47:45;;;;;;;0.80;0.73;;;9.10;99.90;;;;;;4944316;28;20231;-89
2024/04/02 03:50:11;;;;;;;0.90;0.73;;;9.20;99.90;;;;;;4952340;28;20822;-89
2024/04/02 03:52:36;;;;;;;0.90;0.67;;;9.40;99.90;;;;;;4946565;28;20673;-89
2024/04/02 03:55:02;;;;;;;0.83;0.83;;;9.50;99.90;;;;;;4946403;28;20197;-89
2024/04/02 03:57:28;;;;;;;0.60;0.60;;;9.20;99.90;;;;;;4949706;28;20201;-89
2024/04/02 03:59:53;;;;;;;0.70;0.70;;;9.50;99.90;;;;;;4954767;28;20438;-89
2024/04/02 04:02:19;;;;;;;1.00;0.70;;;9.00;99.90;;;;;;4960767;28;20225;-90
2024/04/02 04:04:44;;;;;;;3.13;1.53;;;9.50;99.90;;;;;;4963132;28;20621;-90
2024/04/02 04:07:10;;;;;;;0.70;0.70;;;9.20;99.90;;;;;;4960561;28;20204;-89
2024/04/02 04:09:36;;;;;;;1.33;0.80;;;9.00;99.90;;;;;;4961580;28;20221;-89
2024/04/02 04:12:02;;;;;;;0.60;0.50;;;9.20;99.90;;;;;;4961868;28;20487;-89
2024/04/02 04:14:27;;;;;;;3.20;1.17;;;9.10;99.90;;;;;;4962569;28;20201;-89
2024/04/02 04:16:53;;;;;;;0.93;0.77;;;9.40;99.90;;;;;;4959734;28;20197;-89
2024/04/02 04:19:19;;;;;;;0.82;0.80;;;9.20;99.90;;;;;;4949855;28;20201;-90
2024/04/02 04:21:44;;;;;;;0.80;0.60;;;9.30;99.90;;;;;;4951708;28;20182;-90
2024/04/02 04:24:10;;;;;;;1.00;0.70;;;9.60;99.90;;;;;;4954998;28;20608;-89
2024/04/02 04:26:36;;;;;;;0.70;0.60;;;9.10;99.90;;;;;;4950448;28;20231;-90
2024/04/02 04:29:02;;;;;;;0.90;0.70;;;9.30;99.90;;;;;;4948470;28;20316;-89
2024/04/02 04:31:28;;;;;;;2.25;0.82;;;8.70;99.90;;;;;;4955422;28;20190;-89
2024/04/02 04:33:53;;;;;;;1.43;0.80;;;8.90;99.90;;;;;;4955194;28;20345;-90
2024/04/02 04:36:19;;;;;;;2.00;0.70;;;9.20;99.90;;;;;;4948178;28;20212;-89
2024/04/02 04:38:44;;;;;;;0.60;0.60;;;9.40;99.90;;;;;;4951937;28;20244;-89
2024/04/02 04:41:10;;;;;;;0.97;0.87;;;9.40;99.90;;;;;;4951326;28;20191;-89
2024/04/02 04:43:35;;;;;;;0.70;0.60;;;9.30;99.90;;;;;;4952444;28;20235;-89
2024/04/02 04:46:03;;;;;;;0.80;0.70;;;9.40;99.90;;;;;;4945455;28;20317;-89
2024/04/02 04:48:29;;;;;;;1.30;0.88;;;9.40;99.90;;;;;;4951784;28;20704;-89
2024/04/02 04:50:55;;;;;;;1.20;0.70;;;9.30;99.90;;;;;;4954286;28;20185;-89
2024/04/02 04:53:21;;;;;;;0.88;0.80;;;9.60;99.90;;;;;;4946568;28;20412;-89
2024/04/02 04:55:47;;;;;;;0.90;0.80;;;9.10;99.90;;;;;;4951842;28;20184;-88
2024/04/02 04:58:12;;;;;;;0.70;0.60;;;9.20;99.90;;;;;;4952770;28;20222;-86
2024/04/02 05:00:38;;;;;;;0.80;0.60;;;9.50;99.90;;;;;;4965626;28;20197;-87
2024/04/02 05:03:03;;;;;;;0.70;0.70;;;9.20;99.90;;;;;;4956449;28;20189;-87
2024/04/02 05:05:29;;;;;;;0.70;0.60;;;9.10;99.90;;;;;;4954316;28;20196;-87
2024/04/02 05:07:56;;;;;;;0.70;0.50;;;9.40;99.90;;;;;;4950507;28;20221;-87
2024/04/02 05:10:24;;;;;;;1.13;0.73;;;9.70;99.90;;;;;;4954442;28;20202;-87
2024/04/02 05:12:50;;;;;;;0.80;0.70;;;9.10;99.90;;;;;;4955090;28;20186;-87
2024/04/02 05:15:15;;;;;;;0.97;0.83;;;9.20;99.90;;;;;;4953148;28;20197;-87
2024/04/02 05:17:41;;;;;;;1.00;0.80;;;9.30;99.90;;;;;;4953687;28;20216;-87
2024/04/02 05:20:07;;;;;;;1.77;0.90;;;9.80;99.90;;;;;;4960741;28;20345;-87
2024/04/02 05:22:33;;;;;;;0.70;0.60;;;9.50;99.90;;;;;;4954636;28;20222;-87
2024/04/02 05:24:58;;;;;;;0.80;0.80;;;9.40;99.90;;;;;;4960778;28;20186;-87
2024/04/02 05:27:24;;;;;;;0.80;0.60;;;9.90;99.90;;;;;;4961383;28;20286;-87
2024/04/02 05:29:49;;;;;;;1.10;0.80;;;9.50;99.90;;;;;;4990698;23;20440;-87
2024/04/02 05:32:15;;;;;;;1.00;0.70;;;9.60;99.90;;;;;;4962784;28;20215;-87
2024/04/02 05:34:40;;;;;;;0.93;0.80;;;9.70;99.90;;;;;;4960390;28;20476;-86
2024/04/02 05:37:06;;;;;;;0.70;0.70;;;9.60;99.90;;;;;;4956508;28;20351;-87
2024/04/02 05:39:32;;;;;;;0.80;0.70;;;9.70;99.90;;;;;;4965954;29;20470;-86
2024/04/02 05:41:57;;;;;;;0.90;0.70;;;9.70;99.90;;;;;;4967442;28;20177;-87
2024/04/02 05:44:23;;;;;;;1.53;0.70;;;9.90;99.90;;;;;;4962022;28;20202;-87
2024/04/02 05:46:48;;;;;;;1.47;0.70;;;9.90;99.90;;;;;;4960282;28;20689;-87
2024/04/02 05:49:14;;;;;;;0.80;0.70;;;9.80;99.90;;;;;;4940478;28;20486;-86
2024/04/02 05:51:40;;;;;;;0.90;0.73;;;10.10;99.90;;;;;;4957499;28;20222;-87
2024/04/02 05:54:07;;;;;;;1.77;0.87;;;9.90;99.90;;;;;;4955815;28;20412;-87
2024/04/02 05:56:33;;;;;;;1.70;0.80;;;10.10;99.90;;;;;;4957084;28;20686;-86
2024/04/02 05:58:58;;;;;;;1.10;0.73;;;10.10;99.90;;;;;;4954560;29;20587;-87
2024/04/02 06:01:26;;;;;;;0.87;0.70;;;10.20;99.90;;;;;;4951626;28;20207;-86
2024/04/02 06:03:52;;;;;;;1.25;0.70;;;9.90;99.90;;;;;;4955786;28;20743;-87
2024/04/02 06:06:18;;;;;;;2.90;0.77;;;10.20;99.90;;;;;;4955207;28;20202;-87
2024/04/02 06:08:43;;;;;;;0.93;0.77;;;10.00;99.90;;;;;;4953215;28;20218;-87
2024/04/02 06:11:09;;;;;;;2.07;0.80;;;10.30;99.90;;;;;;4954671;29;20648;-87
2024/04/02 06:13:34;;;;;;;1.03;0.77;;;10.60;99.90;;;;;;4953712;29;20738;-87
2024/04/02 06:16:00;;;;;;;0.90;0.70;;;10.50;99.90;;;;;;4942489;29;20211;-87
2024/04/02 06:18:25;;;;;;;1.20;0.70;;;10.70;99.90;;;;;;4958770;28;20264;-87
2024/04/02 06:20:58;;;;;;;1.40;0.60;;;10.70;99.90;;;;;;4964513;28;20215;-87
2024/04/02 06:23:24;;;;;;;1.42;1.05;;;11.20;99.90;;;;;;4950655;28;20570;-87
2024/04/02 06:25:49;;;;;;;1.00;0.67;;;11.20;99.90;;;;;;4953172;29;20188;-86
2024/04/02 06:28:15;;;;;;;0.73;0.70;;;11.10;99.90;;;;;;4957239;28;20286;-87
2024/04/02 06:30:43;;;;;;;1.27;0.50;;;11.60;99.90;;;;;;4957045;29;20199;-86
2024/04/02 06:33:08;;;;;;;0.88;0.60;;;11.20;99.90;;;;;;4954577;28;20216;-87
2024/04/02 06:35:36;;;;;;;0.80;0.80;;;11.20;99.90;;;;;;4958612;29;20215;-87
2024/04/02 06:38:01;;;;;;;1.50;0.73;;;10.90;99.90;;;;;;4956731;28;20188;-87
2024/04/02 06:40:27;;;;;;;0.87;0.70;;;11.10;99.90;;;;;;4955961;29;20192;-87
2024/04/02 06:42:52;;;;;;;1.27;0.70;;;11.50;99.90;;;;;;4957541;29;20256;-87
2024/04/02 06:45:18;;;;;;;1.10;0.90;;;11.30;99.90;;;;;;4955830;29;20187;-87
2024/04/02 06:47:43;;;;;;;2.30;0.70;;;11.20;99.90;;;;;;4953908;29;20704;-87
2024/04/02 06:50:10;;;;;;;0.70;0.60;;;11.50;99.90;;;;;;4956888;28;20291;-87
2024/04/02 06:52:36;;;;;;;0.90;0.70;;;11.20;99.90;;;;;;4951549;28;20177;-87
2024/04/02 06:55:01;;;;;;;0.83;0.60;;;10.60;99.90;;;;;;4956299;29;20203;-87
2024/04/02 06:57:27;;;;;;;1.53;0.50;;;13.20;99.90;;;;;;4956950;29;20201;-87
2024/04/02 06:59:52;;;;;;;1.07;0.80;;;10.90;99.90;;;;;;4955753;28;20183;-87
2024/04/02 07:02:19;;;;;;;0.60;0.53;;;11.60;99.90;;;;;;4954830;29;20231;-87
2024/04/02 07:04:45;;;;;;;0.63;0.50;;;11.30;99.90;;;;;;4955954;28;20203;-87
2024/04/02 07:07:10;;;;;;;0.80;0.60;;;11.20;99.90;;;;;;4957058;28;20206;-87
2024/04/02 07:09:36;;;;;;;0.70;0.60;;;12.00;99.90;;;;;;4957338;28;20208;-87
2024/04/02 07:12:01;;;;;;;0.70;0.50;;;12.00;99.90;;;;;;4953465;29;20188;-87
2024/04/02 07:14:27;;;;;;;1.60;0.60;;;14.00;99.90;;;;;;4954231;29;20192;-87
2024/04/02 07:16:54;;;;;;;1.50;1.20;;;14.40;97.60;;;;;;4955596;28;20209;-88
2024/04/02 07:19:20;;;;;;;0.90;0.60;;;15.40;96.80;;;;;;4953591;28;20200;-87
2024/04/02 07:21:45;;;;;;;2.57;1.00;;;16.90;93.90;;;;;;4957033;29;20189;-87
2024/04/02 07:24:11;;;;;;;1.20;0.90;;;17.00;93.10;;;;;;4957246;28;20186;-87
2024/04/02 07:26:37;;;;;;;0.87;0.60;;;19.50;91.00;;;;;;4954167;28;20633;-88
2024/04/02 07:29:02;;;;;;;2.50;0.80;;;20.50;84.20;;;;;;4951461;28;20213;-88
2024/04/02 07:31:28;;;;;;;1.60;1.30;;;21.00;78.50;;;;;;4955962;28;20195;-88
2024/04/02 07:33:54;;;;;;;1.10;0.70;;;20.30;78.10;;;;;;4957375;28;20185;-88
2024/04/02 07:36:20;;;;;;;2.40;0.90;;;19.20;79.60;;;;;;4954281;28;20208;-87
2024/04/02 07:38:45;;;;;;;2.10;0.70;;;17.90;82.90;;;;;;4966053;28;20275;-88
2024/04/02 07:41:11;;;;;;;2.10;0.70;;;16.80;86.10;;;;;;4951551;29;20543;-87
2024/04/02 07:43:36;;;;;;;0.77;0.60;;;16.70;90.20;;;;;;4969063;28;20547;-87
2024/04/02 07:46:02;;;;;;;1.97;1.10;;;16.40;90.10;;;;;;4960325;28;20220;-88
2024/04/02 07:48:28;;;;;;;1.20;0.90;;;16.80;88.00;;;;;;4955033;28;20627;-87
2024/04/02 07:50:54;;;;;;;1.17;0.83;;;17.20;87.10;;;;;;4957043;28;20678;-88
2024/04/02 07:53:19;;;;;;;1.42;0.70;;;16.40;87.60;;;;;;4962726;29;20552;-87
2024/04/02 07:55:45;;;;;;;1.80;1.00;;;16.20;88.20;;;;;;4961521;29;20181;-87
2024/04/02 07:58:11;;;;;;;1.90;1.10;;;15.50;89.80;;;;;;4952393;28;20192;-87
2024/04/02 08:00:36;;;;;;;1.77;1.10;;;15.00;90.20;;;;;;4957315;29;20674;-87
2024/04/02 08:03:03;;;;;;;1.30;0.77;;;15.50;90.60;;;;;;4959201;29;20181;-87
2024/04/02 08:05:29;;;;;;;1.63;0.88;;;15.30;90.00;;;;;;4955089;28;20220;-87
2024/04/02 08:07:54;;;;;;;1.97;1.10;;;15.90;89.60;;;;;;4956184;28;20204;-87
2024/04/02 08:10:21;;;;;;;2.00;0.87;;;15.30;87.20;;;;;;4956459;29;20200;-87
2024/04/02 08:12:48;;;;;;;1.92;0.80;;;15.60;88.90;;;;;;4955543;29;20268;-87
2024/04/02 08:15:13;;;;;;;2.65;0.90;;;15.30;89.80;;;;;;4952632;28;20197;-87
2024/04/02 08:17:39;;;;;;;1.63;0.80;;;15.90;90.20;;;;;;4954274;29;20192;-88
2024/04/02 08:20:05;;;;;;;2.50;1.13;;;17.30;86.40;;;;;;4958288;28;20255;-88
2024/04/02 08:22:31;;;;;;;3.03;2.17;;;17.30;83.90;;;;;;4959724;29;20192;-88
2024/04/02 08:24:57;;;;;;;4.10;1.20;;;17.40;81.70;;;;;;4957110;28;20177;-88
2024/04/02 08:27:23;;;;;;;1.77;1.27;;;19.70;77.50;;;;;;4953239;29;20220;-88
2024/04/02 08:29:49;;;;;;;2.53;0.93;;;20.10;73.80;;;;;;4971210;28;20201;-88
2024/04/02 08:32:15;;;;;;;2.60;0.80;;;19.10;74.20;;;;;;4956021;29;20456;-87
2024/04/02 08:34:41;;;;;;;1.10;0.60;;;18.30;77.50;;;;;;4957002;29;20765;-87
2024/04/02 08:37:06;;;;;;;1.23;0.80;;;18.40;77.60;;;;;;4953567;29;20280;-87
2024/04/02 08:39:32;;;;;;;1.10;0.73;;;18.50;76.90;;;;;;4938705;29;20212;-87
2024/04/02 08:42:03;;;;;;;3.07;0.80;;;18.60;77.60;;;;;;4952582;28;20601;-87
2024/04/02 08:44:31;;;;;;;2.30;1.00;;;18.10;76.40;;;;;;4951206;29;20678;-87
2024/04/02 08:46:56;;;;;;;3.05;0.95;;;17.90;77.70;;;;;;4953610;29;20232;-87
2024/04/02 08:49:22;;;;;;;8.63;1.13;;;17.00;78.90;;;;;;4956416;29;20205;-87
2024/04/02 08:51:48;;;;;;;2.50;1.20;;;16.80;80.10;;;;;;4951857;28;20185;-87
2024/04/02 08:54:14;;;;;;;2.17;1.10;;;16.40;83.10;;;;;;4948378;29;20196;-87
2024/04/02 08:56:41;;;;;;;3.33;1.40;;;15.40;83.90;;;;;;4950275;29;20201;-87
2024/04/02 08:59:08;;;;;;;1.38;0.70;;;15.70;85.10;;;;;;4953513;28;20225;-87
2024/04/02 09:01:34;;;;;;;2.05;1.10;;;15.90;85.60;;;;;;4953721;29;20181;-87
2024/04/02 09:04:02;;;;;;;2.05;0.98;;;14.90;86.70;;;;;;4938013;29;20201;-87
2024/04/02 09:06:28;;;;;;;2.50;0.88;;;14.90;87.40;;;;;;4964794;28;20346;-87
2024/04/02 09:08:56;;;;;;;3.13;1.07;;;13.80;87.90;;;;;;4937221;29;20690;-87
2024/04/02 09:11:24;;;;;;;1.30;1.10;;;13.80;90.10;;;;;;4940933;29;21205;-87
2024/04/02 09:13:50;;;;;;;2.35;1.13;;;14.20;90.70;;;;;;4963097;28;20269;-88
2024/04/02 09:16:16;;;;;;;2.10;1.30;;;14.90;89.70;;;;;;4951237;29;20200;-87
2024/04/02 09:18:42;;;;;;;1.87;0.80;;;15.50;85.20;;;;;;4953384;28;20181;-87
2024/04/02 09:21:12;;;;;;;1.20;0.90;;;15.90;83.70;;;;;;4956641;29;20311;-87
2024/04/02 09:23:37;;;;;;;0.85;0.63;;;16.70;81.20;;;;;;4949590;29;20919;-88
2024/04/02 09:26:03;;;;;;;2.30;0.80;;;17.40;80.60;;;;;;4953512;28;20355;-88
2024/04/02 09:28:29;;;;;;;2.37;1.03;;;17.70;78.60;;;;;;4952313;29;20259;-87
2024/04/02 09:30:54;;;;;;;1.77;0.80;;;18.70;77.20;;;;;;4954930;28;20490;-89
2024/04/02 09:33:21;;;;;;;3.30;0.90;;;18.60;76.80;;;;;;4950465;29;20231;-89
2024/04/02 09:36:07;;;;;;;3.10;0.90;;;17.90;75.10;;;;;;4956534;28;20181;-88
2024/04/02 09:38:33;;;;;;;1.50;0.80;;;17.90;73.60;;;;;;4952528;29;20182;-88
2024/04/02 09:41:00;;;;;;;1.70;0.80;;;18.40;74.80;;;;;;4954662;28;20192;-89
2024/04/02 09:43:29;;;;;;;1.25;0.82;;;19.00;72.90;;;;;;4936776;29;20248;-89
2024/04/02 09:45:55;;;;;;;0.90;0.70;;;18.90;71.80;;;;;;4951536;28;20193;-88
2024/04/02 09:48:23;;;;;;;2.70;0.80;;;19.00;70.20;;;;;;4949221;28;20200;-88
2024/04/02 09:50:52;;;;;;;1.77;0.80;;;19.90;70.40;;;;;;4955303;28;20185;-88
2024/04/02 09:53:19;;;;;;;1.85;0.95;;;19.60;68.20;;;;;;4950075;28;20669;-89
2024/04/02 09:55:45;;;;;;;2.83;0.77;;;20.30;67.80;;;;;;4955359;29;20696;-88
2024/04/02 09:58:12;;;;;;;2.63;0.90;;;20.20;65.30;;;;;;4954992;28;20187;-89
2024/04/02 10:00:43;;;;;;;1.25;0.80;;;19.10;66.60;;;;;;4953360;28;20196;-89
2024/04/02 10:03:10;;;;;;;2.80;1.10;;;18.90;68.30;;;;;;4956620;29;20180;-88
2024/04/02 10:05:36;;;;;;;3.25;1.33;;;19.00;68.90;;;;;;4952092;28;20554;-88
2024/04/02 10:08:05;;;;;;;2.93;1.00;;;18.00;69.80;;;;;;4951645;28;20197;-88
2024/04/02 10:10:31;;;;;;;3.20;1.20;;;18.30;68.90;;;;;;4949643;29;20208;-88
2024/04/02 10:12:58;;;;;;;1.80;1.00;;;19.30;68.20;;;;;;4950991;28;20235;-88
2024/04/02 10:15:24;;;;;;;2.22;0.90;;;19.60;65.70;;;;;;4952471;28;20527;-88
2024/04/02 10:17:58;;;;;;;1.63;1.17;;;19.30;65.10;;;;;;4951191;28;20212;-88
2024/04/02 10:20:29;;;;;;;1.20;1.00;;;18.40;65.70;;;;;;4954698;29;20272;-88
2024/04/02 10:22:56;;;;;;;2.35;1.00;;;18.50;65.70;;;;;;4977454;28;20288;-87
2024/04/02 10:25:23;;;;;;;1.88;0.70;;;18.70;66.60;;;;;;4963967;28;20212;-88
2024/04/02 10:27:53;;;;;;;3.58;1.30;;;19.10;65.30;;;;;;4952281;29;20202;-89
2024/04/02 10:30:21;;;;;;;2.20;1.00;;;19.20;65.50;;;;;;4948906;28;20207;-89
2024/04/02 10:32:49;;;;;;;2.45;1.10;;;18.70;65.90;;;;;;4937508;29;20228;-88
2024/04/02 10:35:25;;;;;;;3.00;0.90;;;18.70;66.40;;;;;;4958398;28;20181;-88
2024/04/02 10:37:56;;;;;;;1.88;1.05;;;19.20;66.50;;;;;;4962511;28;20196;-94
2024/04/02 10:40:22;;;;;;;2.17;1.88;;;18.80;64.50;;;;;;4954816;28;20503;-92
2024/04/02 10:42:50;;;;;;;1.65;0.93;;;18.50;64.80;;;;;;4955260;29;20184;-91
2024/04/02 10:45:16;;;;;;;2.50;1.10;;;17.90;65.10;;;;;;4950758;28;20646;-92
2024/04/02 10:47:50;;;;;;;2.38;1.35;;;16.90;68.30;;;;;;4943630;28;20207;-92
2024/04/02 10:50:18;;;;;;;1.85;0.70;;;16.90;71.20;;;;;;4957120;28;20248;-92
2024/04/02 10:52:44;;;;;;;2.03;1.30;;;16.50;74.60;;;;;;4956258;28;20887;-92
2024/04/02 10:55:10;;;;;;;1.38;0.70;;;16.40;75.70;;;;;;4960759;28;20197;-92
2024/04/02 10:57:38;;;;;;;2.00;0.80;;;16.70;75.00;;;;;;4955500;28;20273;-92
2024/04/02 11:00:07;;;;;;;1.30;0.90;;;16.60;73.90;;;;;;4956807;28;20966;-92
2024/04/02 11:02:33;;;;;;;2.92;0.80;;;17.10;74.30;;;;;;4949146;28;20189;-92
2024/04/02 11:04:59;;;;;;;1.87;1.10;;;17.80;73.60;;;;;;4953432;28;20185;-92
2024/04/02 11:07:29;;;;;;;1.98;0.70;;;18.00;72.40;;;;;;4964183;28;20213;-92
2024/04/02 11:09:56;;;;;;;2.65;0.88;;;17.40;73.40;;;;;;4962011;28;20227;-92
2024/04/02 11:12:23;;;;;;;1.77;0.70;;;18.00;73.80;;;;;;4958834;28;20184;-93
2024/04/02 11:14:52;;;;;;;2.05;0.90;;;17.50;73.30;;;;;;4952476;28;20282;-92
2024/04/02 11:17:19;;;;;;;1.58;1.00;;;17.70;73.20;;;;;;4955889;28;20216;-92
2024/04/02 11:19:45;;;;;;;1.85;0.90;;;17.80;72.30;;;;;;4956356;28;20193;-91
2024/04/02 11:25:06;;;;;;;2.97;1.00;;;16.50;84.80;;;;;;4957716;28;20344;-89
2024/04/02 11:27:32;;;;;;;3.35;1.00;;;16.00;86.40;;;;;;4967042;28;20204;-89
2024/04/02 11:29:59;;;;;;;1.77;0.90;;;15.50;88.80;;;;;;4958143;28;20212;-91
2024/04/02 11:32:25;;;;;;;1.17;0.80;;;15.40;88.50;;;;;;4965627;28;20290;-92
2024/04/02 11:34:58;;;;;;;1.98;1.40;;;16.00;90.30;;;;;;4961419;28;20676;-92
2024/04/02 11:37:23;;;;;;;1.38;0.70;;;16.60;87.60;;;;;;4962076;28;20200;-92
2024/04/02 11:39:49;;;;;;;3.47;0.80;;;16.50;83.80;;;;;;4960436;28;20650;-92
2024/04/02 11:42:15;;;;;;;1.23;0.90;;;17.20;82.90;;;;;;4946901;28;20768;-93
2024/04/02 11:44:41;;;;;;;2.73;0.90;;;17.70;81.30;;;;;;4959285;28;20193;-92
2024/04/02 11:47:07;;;;;;;1.73;0.77;;;18.10;78.10;;;;;;4957013;28;20210;-92
2024/04/02 11:49:33;;;;;;;1.50;0.90;;;18.10;74.70;;;;;;4960184;28;20498;-90
2024/04/02 11:51:58;;;;;;;1.27;0.93;;;18.50;74.80;;;;;;4961146;28;20252;-92
2024/04/02 11:54:24;;;;;;;7.87;1.00;;;18.20;74.30;;;;;;4969511;28;20228;-93
2024/04/02 12:02:20;;;;;;;2.88;1.55;;;17.30;73.60;;;;;;4957235;28;20207;-90
2024/04/02 12:04:45;;;;;;;2.35;0.70;;;17.10;74.60;;;;;;4954962;28;20192;-91
2024/04/02 12:07:11;;;;;;;2.50;0.83;;;17.60;76.90;;;;;;4972531;23;20272;-90
2024/04/02 12:09:40;;;;;;;2.53;0.80;;;17.40;76.20;;;;;;4961546;28;20204;-90
2024/04/02 12:12:06;;;;;;;2.08;0.85;;;17.20;75.30;;;;;;4945541;28;20197;-91
2024/04/02 12:14:32;;;;;;;1.60;0.73;;;17.00;73.70;;;;;;4958594;28;20181;-91
2024/04/02 12:16:57;;;;;;;1.07;0.70;;;17.10;72.50;;;;;;4942994;29;20263;-91
2024/04/02 12:19:23;;;;;;;1.70;0.87;;;17.20;72.90;;;;;;4944926;29;20208;-91
2024/04/02 12:21:50;;;;;;;0.83;0.63;;;17.10;73.40;;;;;;4957730;28;20200;-91
2024/04/02 12:24:20;;;;;;;1.67;0.70;;;17.50;75.20;;;;;;4960327;28;20243;-92
2024/04/02 12:26:48;;;;;;;4.30;0.70;;;16.20;73.20;;;;;;4964359;28;20272;-93
2024/04/02 12:29:14;;;;;;;1.20;1.07;;;16.00;73.60;;;;;;4942930;29;20208;-93
2024/04/02 12:31:41;;;;;;;1.40;0.80;;;16.30;75.30;;;;;;4943311;29;20184;-92
2024/04/02 12:34:18;;;;;;;1.65;0.80;;;16.10;75.10;;;;;;4928820;29;20300;-92
2024/04/02 12:36:44;;;;;;;1.98;1.00;;;15.80;75.80;;;;;;4958227;28;20213;-91
2024/04/02 12:39:11;;;;;;;1.92;0.63;;;16.20;77.00;;;;;;4961553;28;20234;-92
2024/04/02 12:41:37;;;;;;;1.65;0.88;;;15.90;77.80;;;;;;4962949;28;20205;-93
2024/04/02 12:44:03;;;;;;;1.40;1.30;;;15.90;83.60;;;;;;4967518;29;20196;-91
2024/04/02 12:46:29;;;;;;;1.33;1.10;;;15.60;83.00;;;;;;4944820;29;20213;-91
2024/04/02 12:48:54;;;;;;;2.60;0.80;;;15.70;87.50;;;;;;4970641;28;20223;-91
2024/04/02 12:51:20;;;;;;;1.00;0.87;;;15.80;89.60;;;;;;4976108;28;20184;-92
2024/04/02 12:53:47;;;;;;;1.23;0.70;;;15.80;88.20;;;;;;4956968;28;20217;-91